sensor_id;sensor_type;location;lat;lon;timestamp;P1;P2;P0
61592;PMS5003;47485;51.378;-1.342;2022-12-18T00:00:07;34;30;
61592;PMS5003;47485;51.378;-1.342;2022-12-18T00:02:35;32;26;
61592;PMS5003;47485;51.378;-1.342;2022-12-18T00:05:01;29;25;
61592;PMS5003;47485;51.378;-1.342;2022-12-18T00:07:29;34;31;
61592;PMS5003;47485;51.378;-1.342;2022-12-18T00:09:55;31;22;
61592;PMS5003;47485;51.378;-1.342;2022-12-18T00:12:22;33;25;
61592;PMS5003;47485;51.378;-1.342;2022-12-18T00:14:49;34;30;
61592;PMS5003;47485;51.378;-1.342;2022-12-18T00:17:16;38;32;
61592;PMS5003;47485;51.378;-1.342;2022-12-18T00:19:43;44;35;
61592;PMS5003;47485;51.378;-1.342;2022-12-18T00:22:10;46;38;
61592;PMS5003;47485;51.378;-1.342;2022-12-18T00:24:37;36;33;
61592;PMS5003;47485;51.378;-1.342;2022-12-18T00:27:03;45;34;
61592;PMS5003;47485;51.378;-1.342;2022-12-18T00:29:30;41;30;
61592;PMS5003;47485;51.378;-1.342;2022-12-18T00:31:57;42;34;
61592;PMS5003;47485;51.378;-1.342;2022-12-18T00:34:24;44;35;
61592;PMS5003;47485;51.378;-1.342;2022-12-18T00:36:50;40;34;
61592;PMS5003;47485;51.378;-1.342;2022-12-18T00:39:17;40;35;
61592;PMS5003;47485;51.378;-1.342;2022-12-18T00:41:44;40;38;
61592;PMS5003;47485;51.378;-1.342;2022-12-18T00:44:11;51;43;
61592;PMS5003;47485;51.378;-1.342;2022-12-18T00:46:40;42;38;
61592;PMS5003;47485;51.378;-1.342;2022-12-18T00:49:07;43;38;
61592;PMS5003;47485;51.378;-1.342;2022-12-18T00:51:34;44;34;
61592;PMS5003;47485;51.378;-1.342;2022-12-18T00:54:01;43;37;
61592;PMS5003;47485;51.378;-1.342;2022-12-18T00:56:28;46;42;
61592;PMS5003;47485;51.378;-1.342;2022-12-18T00:58:55;48;41;
61592;PMS5003;47485;51.378;-1.342;2022-12-18T01:01:22;39;35;
61592;PMS5003;47485;51.378;-1.342;2022-12-18T01:03:49;49;44;
61592;PMS5003;47485;51.378;-1.342;2022-12-18T01:06:16;43;36;
61592;PMS5003;47485;51.378;-1.342;2022-12-18T01:08:43;37;36;
61592;PMS5003;47485;51.378;-1.342;2022-12-18T01:11:11;46;37;
61592;PMS5003;47485;51.378;-1.342;2022-12-18T01:13:40;41;36;
61592;PMS5003;47485;51.378;-1.342;2022-12-18T01:16:07;47;39;
61592;PMS5003;47485;51.378;-1.342;2022-12-18T01:18:37;48;43;
61592;PMS5003;47485;51.378;-1.342;2022-12-18T01:21:06;39;36;
61592;PMS5003;47485;51.378;-1.342;2022-12-18T01:23:33;50;38;
61592;PMS5003;47485;51.378;-1.342;2022-12-18T01:26:03;44;38;
61592;PMS5003;47485;51.378;-1.342;2022-12-18T01:28:31;46;38;
61592;PMS5003;47485;51.378;-1.342;2022-12-18T01:31:08;54;45;
61592;PMS5003;47485;51.378;-1.342;2022-12-18T01:33:39;48;38;
61592;PMS5003;47485;51.378;-1.342;2022-12-18T01:36:07;44;38;
61592;PMS5003;47485;51.378;-1.342;2022-12-18T01:38:34;42;36;
61592;PMS5003;47485;51.378;-1.342;2022-12-18T01:41:01;44;38;
61592;PMS5003;47485;51.378;-1.342;2022-12-18T01:43:44;44;39;
61592;PMS5003;47485;51.378;-1.342;2022-12-18T01:46:14;50;42;
61592;PMS5003;47485;51.378;-1.342;2022-12-18T01:48:41;49;45;
61592;PMS5003;47485;51.378;-1.342;2022-12-18T01:51:10;47;39;
61592;PMS5003;47485;51.378;-1.342;2022-12-18T01:53:39;48;40;
61592;PMS5003;47485;51.378;-1.342;2022-12-18T01:56:07;50;42;
61592;PMS5003;47485;51.378;-1.342;2022-12-18T01:58:39;50;40;
61592;PMS5003;47485;51.378;-1.342;2022-12-18T02:01:12;52;44;
61592;PMS5003;47485;51.378;-1.342;2022-12-18T02:03:41;49;42;
61592;PMS5003;47485;51.378;-1.342;2022-12-18T02:06:10;48;38;
61592;PMS5003;47485;51.378;-1.342;2022-12-18T02:08:43;42;36;
61592;PMS5003;47485;51.378;-1.342;2022-12-18T02:11:18;61;46;
61592;PMS5003;47485;51.378;-1.342;2022-12-18T02:13:56;48;40;
61592;PMS5003;47485;51.378;-1.342;2022-12-18T02:16:34;45;41;
61592;PMS5003;47485;51.378;-1.342;2022-12-18T02:19:15;57;48;
61592;PMS5003;47485;51.378;-1.342;2022-12-18T02:22:00;48;38;
61592;PMS5003;47485;51.378;-1.342;2022-12-18T02:24:41;45;41;
61592;PMS5003;47485;51.378;-1.342;2022-12-18T02:27:16;46;40;
61592;PMS5003;47485;51.378;-1.342;2022-12-18T02:29:44;46;42;
61592;PMS5003;47485;51.378;-1.342;2022-12-18T02:32:16;46;39;
61592;PMS5003;47485;51.378;-1.342;2022-12-18T02:34:48;48;45;
61592;PMS5003;47485;51.378;-1.342;2022-12-18T02:37:17;46;41;
61592;PMS5003;47485;51.378;-1.342;2022-12-18T02:39:46;41;36;
61592;PMS5003;47485;51.378;-1.342;2022-12-18T02:42:15;43;38;
61592;PMS5003;47485;51.378;-1.342;2022-12-18T02:44:44;48;37;
61592;PMS5003;47485;51.378;-1.342;2022-12-18T02:47:14;42;36;
61592;PMS5003;47485;51.378;-1.342;2022-12-18T02:49:44;52;39;
61592;PMS5003;47485;51.378;-1.342;2022-12-18T02:52:23;50;40;
61592;PMS5003;47485;51.378;-1.342;2022-12-18T02:54:57;43;39;
61592;PMS5003;47485;51.378;-1.342;2022-12-18T02:57:33;38;32;
61592;PMS5003;47485;51.378;-1.342;2022-12-18T03:00:04;38;32;
61592;PMS5003;47485;51.378;-1.342;2022-12-18T03:02:36;51;44;
61592;PMS5003;47485;51.378;-1.342;2022-12-18T03:05:10;49;38;
61592;PMS5003;47485;51.378;-1.342;2022-12-18T03:07:43;49;36;
61592;PMS5003;47485;51.378;-1.342;2022-12-18T03:10:16;41;34;
61592;PMS5003;47485;51.378;-1.342;2022-12-18T03:12:52;47;43;
61592;PMS5003;47485;51.378;-1.342;2022-12-18T03:15:22;50;43;
61592;PMS5003;47485;51.378;-1.342;2022-12-18T03:17:55;44;39;
61592;PMS5003;47485;51.378;-1.342;2022-12-18T03:20:32;45;42;
61592;PMS5003;47485;51.378;-1.342;2022-12-18T03:23:02;43;37;
61592;PMS5003;47485;51.378;-1.342;2022-12-18T03:25:34;52;43;
61592;PMS5003;47485;51.378;-1.342;2022-12-18T03:28:06;47;41;
61592;PMS5003;47485;51.378;-1.342;2022-12-18T03:30:34;45;42;
61592;PMS5003;47485;51.378;-1.342;2022-12-18T03:33:05;45;39;
61592;PMS5003;47485;51.378;-1.342;2022-12-18T03:35:38;46;39;
61592;PMS5003;47485;51.378;-1.342;2022-12-18T03:38:07;46;41;
61592;PMS5003;47485;51.378;-1.342;2022-12-18T03:40:38;48;39;
61592;PMS5003;47485;51.378;-1.342;2022-12-18T03:43:17;49;41;
61592;PMS5003;47485;51.378;-1.342;2022-12-18T03:45:52;52;41;
61592;PMS5003;47485;51.378;-1.342;2022-12-18T03:48:28;47;42;
61592;PMS5003;47485;51.378;-1.342;2022-12-18T03:50:59;49;43;
61592;PMS5003;47485;51.378;-1.342;2022-12-18T03:53:33;54;50;
61592;PMS5003;47485;51.378;-1.342;2022-12-18T03:56:05;56;44;
61592;PMS5003;47485;51.378;-1.342;2022-12-18T03:58:34;58;50;
61592;PMS5003;47485;51.378;-1.342;2022-12-18T04:01:04;53;45;
61592;PMS5003;47485;51.378;-1.342;2022-12-18T04:03:34;54;44;
61592;PMS5003;47485;51.378;-1.342;2022-12-18T04:06:03;64;48;
61592;PMS5003;47485;51.378;-1.342;2022-12-18T04:08:32;62;43;
61592;PMS5003;47485;51.378;-1.342;2022-12-18T04:10:59;53;46;
61592;PMS5003;47485;51.378;-1.342;2022-12-18T04:13:28;53;46;
61592;PMS5003;47485;51.378;-1.342;2022-12-18T04:15:56;56;48;
61592;PMS5003;47485;51.378;-1.342;2022-12-18T04:18:23;50;43;
61592;PMS5003;47485;51.378;-1.342;2022-12-18T04:20:49;47;39;
61592;PMS5003;47485;51.378;-1.342;2022-12-18T04:23:16;57;45;
61592;PMS5003;47485;51.378;-1.342;2022-12-18T04:25:43;52;42;
61592;PMS5003;47485;51.378;-1.342;2022-12-18T04:28:10;56;48;
61592;PMS5003;47485;51.378;-1.342;2022-12-18T04:30:36;43;36;
61592;PMS5003;47485;51.378;-1.342;2022-12-18T04:33:05;54;42;
61592;PMS5003;47485;51.378;-1.342;2022-12-18T04:35:34;52;42;
61592;PMS5003;47485;51.378;-1.342;2022-12-18T04:38:01;53;47;
61592;PMS5003;47485;51.378;-1.342;2022-12-18T04:40:28;53;42;
61592;PMS5003;47485;51.378;-1.342;2022-12-18T04:42:55;51;46;
61592;PMS5003;47485;51.378;-1.342;2022-12-18T04:45:22;50;40;
61592;PMS5003;47485;51.378;-1.342;2022-12-18T04:47:48;54;46;
61592;PMS5003;47485;51.378;-1.342;2022-12-18T04:50:15;51;46;
61592;PMS5003;47485;51.378;-1.342;2022-12-18T04:52:42;52;40;
61592;PMS5003;47485;51.378;-1.342;2022-12-18T04:55:09;54;39;
61592;PMS5003;47485;51.378;-1.342;2022-12-18T04:57:36;54;45;
61592;PMS5003;47485;51.378;-1.342;2022-12-18T05:00:04;58;44;
61592;PMS5003;47485;51.378;-1.342;2022-12-18T05:02:31;57;44;
61592;PMS5003;47485;51.378;-1.342;2022-12-18T05:04:59;49;44;
61592;PMS5003;47485;51.378;-1.342;2022-12-18T05:07:26;42;39;
61592;PMS5003;47485;51.378;-1.342;2022-12-18T05:09:53;58;47;
61592;PMS5003;47485;51.378;-1.342;2022-12-18T05:12:21;49;43;
61592;PMS5003;47485;51.378;-1.342;2022-12-18T05:14:48;51;45;
61592;PMS5003;47485;51.378;-1.342;2022-12-18T05:17:15;51;45;
61592;PMS5003;47485;51.378;-1.342;2022-12-18T05:19:42;43;35;
61592;PMS5003;47485;51.378;-1.342;2022-12-18T05:22:09;49;42;
61592;PMS5003;47485;51.378;-1.342;2022-12-18T05:24:36;54;40;
61592;PMS5003;47485;51.378;-1.342;2022-12-18T05:27:02;56;46;
61592;PMS5003;47485;51.378;-1.342;2022-12-18T05:29:29;49;41;
61592;PMS5003;47485;51.378;-1.342;2022-12-18T05:31:56;49;45;
61592;PMS5003;47485;51.378;-1.342;2022-12-18T05:34:23;50;42;
61592;PMS5003;47485;51.378;-1.342;2022-12-18T05:36:49;48;44;
61592;PMS5003;47485;51.378;-1.342;2022-12-18T05:39:16;49;45;
61592;PMS5003;47485;51.378;-1.342;2022-12-18T05:41:43;49;41;
61592;PMS5003;47485;51.378;-1.342;2022-12-18T05:44:10;45;36;
61592;PMS5003;47485;51.378;-1.342;2022-12-18T05:46:37;48;40;
61592;PMS5003;47485;51.378;-1.342;2022-12-18T05:49:03;51;40;
61592;PMS5003;47485;51.378;-1.342;2022-12-18T05:51:29;50;38;
61592;PMS5003;47485;51.378;-1.342;2022-12-18T05:53:56;50;39;
61592;PMS5003;47485;51.378;-1.342;2022-12-18T05:56:23;47;43;
61592;PMS5003;47485;51.378;-1.342;2022-12-18T05:58:51;46;35;
61592;PMS5003;47485;51.378;-1.342;2022-12-18T06:01:21;44;34;
61592;PMS5003;47485;51.378;-1.342;2022-12-18T06:03:50;44;34;
61592;PMS5003;47485;51.378;-1.342;2022-12-18T06:06:18;40;35;
61592;PMS5003;47485;51.378;-1.342;2022-12-18T06:08:47;41;36;
61592;PMS5003;47485;51.378;-1.342;2022-12-18T06:11:17;39;35;
61592;PMS5003;47485;51.378;-1.342;2022-12-18T06:13:49;43;39;
61592;PMS5003;47485;51.378;-1.342;2022-12-18T06:16:18;45;34;
61592;PMS5003;47485;51.378;-1.342;2022-12-18T06:18:45;45;39;
61592;PMS5003;47485;51.378;-1.342;2022-12-18T06:21:12;44;38;
61592;PMS5003;47485;51.378;-1.342;2022-12-18T06:23:39;46;41;
61592;PMS5003;47485;51.378;-1.342;2022-12-18T06:26:07;35;31;
61592;PMS5003;47485;51.378;-1.342;2022-12-18T06:28:35;43;37;
61592;PMS5003;47485;51.378;-1.342;2022-12-18T06:31:02;44;39;
61592;PMS5003;47485;51.378;-1.342;2022-12-18T06:33:29;50;40;
61592;PMS5003;47485;51.378;-1.342;2022-12-18T06:35:59;40;30;
61592;PMS5003;47485;51.378;-1.342;2022-12-18T06:38:27;37;34;
61592;PMS5003;47485;51.378;-1.342;2022-12-18T06:40:54;44;37;
61592;PMS5003;47485;51.378;-1.342;2022-12-18T06:43:21;39;32;
61592;PMS5003;47485;51.378;-1.342;2022-12-18T06:45:48;41;35;
61592;PMS5003;47485;51.378;-1.342;2022-12-18T06:48:15;44;35;
61592;PMS5003;47485;51.378;-1.342;2022-12-18T06:50:42;41;34;
61592;PMS5003;47485;51.378;-1.342;2022-12-18T06:53:10;42;37;
61592;PMS5003;47485;51.378;-1.342;2022-12-18T06:55:37;42;37;
61592;PMS5003;47485;51.378;-1.342;2022-12-18T06:58:04;38;34;
61592;PMS5003;47485;51.378;-1.342;2022-12-18T07:00:30;40;33;
61592;PMS5003;47485;51.378;-1.342;2022-12-18T07:02:57;38;34;
61592;PMS5003;47485;51.378;-1.342;2022-12-18T07:05:23;32;29;
61592;PMS5003;47485;51.378;-1.342;2022-12-18T07:07:50;33;29;
61592;PMS5003;47485;51.378;-1.342;2022-12-18T07:10:17;33;26;
61592;PMS5003;47485;51.378;-1.342;2022-12-18T07:12:44;39;29;
61592;PMS5003;47485;51.378;-1.342;2022-12-18T07:15:11;31;27;
61592;PMS5003;47485;51.378;-1.342;2022-12-18T07:17:38;41;34;
61592;PMS5003;47485;51.378;-1.342;2022-12-18T07:20:05;29;26;
61592;PMS5003;47485;51.378;-1.342;2022-12-18T07:22:32;32;28;
61592;PMS5003;47485;51.378;-1.342;2022-12-18T07:24:58;32;27;
61592;PMS5003;47485;51.378;-1.342;2022-12-18T07:27:25;33;30;
61592;PMS5003;47485;51.378;-1.342;2022-12-18T07:29:52;35;29;
61592;PMS5003;47485;51.378;-1.342;2022-12-18T07:32:18;33;27;
61592;PMS5003;47485;51.378;-1.342;2022-12-18T07:34:46;29;27;
61592;PMS5003;47485;51.378;-1.342;2022-12-18T07:37:12;27;25;
61592;PMS5003;47485;51.378;-1.342;2022-12-18T07:39:39;37;32;
61592;PMS5003;47485;51.378;-1.342;2022-12-18T07:42:06;41;33;
61592;PMS5003;47485;51.378;-1.342;2022-12-18T07:44:33;32;28;
61592;PMS5003;47485;51.378;-1.342;2022-12-18T07:47:00;36;32;
61592;PMS5003;47485;51.378;-1.342;2022-12-18T07:49:27;30;26;
61592;PMS5003;47485;51.378;-1.342;2022-12-18T07:51:55;32;24;
61592;PMS5003;47485;51.378;-1.342;2022-12-18T07:54:24;33;27;
61592;PMS5003;47485;51.378;-1.342;2022-12-18T07:56:51;36;28;
61592;PMS5003;47485;51.378;-1.342;2022-12-18T07:59:18;37;33;
61592;PMS5003;47485;51.378;-1.342;2022-12-18T08:01:45;34;32;
61592;PMS5003;47485;51.378;-1.342;2022-12-18T08:04:12;35;31;
61592;PMS5003;47485;51.378;-1.342;2022-12-18T08:06:39;30;28;
61592;PMS5003;47485;51.378;-1.342;2022-12-18T08:09:06;33;29;
61592;PMS5003;47485;51.378;-1.342;2022-12-18T08:11:33;33;28;
61592;PMS5003;47485;51.378;-1.342;2022-12-18T08:13:59;26;22;
61592;PMS5003;47485;51.378;-1.342;2022-12-18T08:16:25;36;30;
61592;PMS5003;47485;51.378;-1.342;2022-12-18T08:18:53;31;27;
61592;PMS5003;47485;51.378;-1.342;2022-12-18T08:21:21;33;29;
61592;PMS5003;47485;51.378;-1.342;2022-12-18T08:23:51;32;26;
61592;PMS5003;47485;51.378;-1.342;2022-12-18T08:26:20;34;31;
61592;PMS5003;47485;51.378;-1.342;2022-12-18T08:28:48;32;21;
61592;PMS5003;47485;51.378;-1.342;2022-12-18T08:31:16;35;32;
61592;PMS5003;47485;51.378;-1.342;2022-12-18T08:33:43;41;34;
61592;PMS5003;47485;51.378;-1.342;2022-12-18T08:36:10;31;27;
61592;PMS5003;47485;51.378;-1.342;2022-12-18T08:38:36;32;28;
61592;PMS5003;47485;51.378;-1.342;2022-12-18T08:41:04;34;29;
61592;PMS5003;47485;51.378;-1.342;2022-12-18T08:43:33;29;26;
61592;PMS5003;47485;51.378;-1.342;2022-12-18T08:46:00;37;27;
61592;PMS5003;47485;51.378;-1.342;2022-12-18T08:48:26;32;28;
61592;PMS5003;47485;51.378;-1.342;2022-12-18T08:50:53;30;24;
61592;PMS5003;47485;51.378;-1.342;2022-12-18T08:53:21;27;24;
61592;PMS5003;47485;51.378;-1.342;2022-12-18T08:55:48;28;23;
61592;PMS5003;47485;51.378;-1.342;2022-12-18T08:58:15;32;27;
61592;PMS5003;47485;51.378;-1.342;2022-12-18T09:00:42;25;24;
61592;PMS5003;47485;51.378;-1.342;2022-12-18T09:03:10;32;26;
61592;PMS5003;47485;51.378;-1.342;2022-12-18T09:05:37;33;25;
61592;PMS5003;47485;51.378;-1.342;2022-12-18T09:08:04;34;27;
61592;PMS5003;47485;51.378;-1.342;2022-12-18T09:10:31;28;25;
61592;PMS5003;47485;51.378;-1.342;2022-12-18T09:12:58;24;24;
61592;PMS5003;47485;51.378;-1.342;2022-12-18T09:15:25;29;24;
61592;PMS5003;47485;51.378;-1.342;2022-12-18T09:17:52;34;28;
61592;PMS5003;47485;51.378;-1.342;2022-12-18T09:20:19;28;25;
61592;PMS5003;47485;51.378;-1.342;2022-12-18T09:22:47;28;25;
61592;PMS5003;47485;51.378;-1.342;2022-12-18T09:25:13;26;23;
61592;PMS5003;47485;51.378;-1.342;2022-12-18T09:27:40;32;27;
61592;PMS5003;47485;51.378;-1.342;2022-12-18T09:30:08;32;26;
61592;PMS5003;47485;51.378;-1.342;2022-12-18T09:32:35;36;31;
61592;PMS5003;47485;51.378;-1.342;2022-12-18T09:35:03;32;27;
61592;PMS5003;47485;51.378;-1.342;2022-12-18T09:37:30;26;25;
61592;PMS5003;47485;51.378;-1.342;2022-12-18T09:39:57;28;25;
61592;PMS5003;47485;51.378;-1.342;2022-12-18T09:42:24;36;33;
61592;PMS5003;47485;51.378;-1.342;2022-12-18T09:44:51;36;26;
61592;PMS5003;47485;51.378;-1.342;2022-12-18T09:47:21;46;36;
61592;PMS5003;47485;51.378;-1.342;2022-12-18T09:49:53;34;33;
61592;PMS5003;47485;51.378;-1.342;2022-12-18T09:52:26;33;32;
61592;PMS5003;47485;51.378;-1.342;2022-12-18T09:54:59;38;34;
61592;PMS5003;47485;51.378;-1.342;2022-12-18T09:57:29;36;30;
61592;PMS5003;47485;51.378;-1.342;2022-12-18T10:00:03;30;27;
61592;PMS5003;47485;51.378;-1.342;2022-12-18T10:02:35;36;32;
61592;PMS5003;47485;51.378;-1.342;2022-12-18T10:05:03;43;34;
61592;PMS5003;47485;51.378;-1.342;2022-12-18T10:07:35;36;33;
61592;PMS5003;47485;51.378;-1.342;2022-12-18T10:10:13;39;37;
61592;PMS5003;47485;51.378;-1.342;2022-12-18T10:12:50;42;37;
61592;PMS5003;47485;51.378;-1.342;2022-12-18T10:15:23;38;37;
61592;PMS5003;47485;51.378;-1.342;2022-12-18T10:17:57;40;34;
61592;PMS5003;47485;51.378;-1.342;2022-12-18T10:20:32;47;38;
61592;PMS5003;47485;51.378;-1.342;2022-12-18T10:23:08;50;44;
61592;PMS5003;47485;51.378;-1.342;2022-12-18T10:25:41;53;45;
61592;PMS5003;47485;51.378;-1.342;2022-12-18T10:28:19;46;40;
61592;PMS5003;47485;51.378;-1.342;2022-12-18T10:30:48;49;44;
61592;PMS5003;47485;51.378;-1.342;2022-12-18T10:33:16;49;44;
61592;PMS5003;47485;51.378;-1.342;2022-12-18T10:35:45;58;52;
61592;PMS5003;47485;51.378;-1.342;2022-12-18T10:38:20;59;54;
61592;PMS5003;47485;51.378;-1.342;2022-12-18T10:40:51;54;48;
61592;PMS5003;47485;51.378;-1.342;2022-12-18T10:43:20;47;42;
61592;PMS5003;47485;51.378;-1.342;2022-12-18T10:46:14;54;43;
61592;PMS5003;47485;51.378;-1.342;2022-12-18T10:48:48;47;41;
61592;PMS5003;47485;51.378;-1.342;2022-12-18T10:51:20;44;41;
61592;PMS5003;47485;51.378;-1.342;2022-12-18T10:53:51;36;33;
61592;PMS5003;47485;51.378;-1.342;2022-12-18T10:56:22;45;38;
61592;PMS5003;47485;51.378;-1.342;2022-12-18T10:58:55;43;40;
61592;PMS5003;47485;51.378;-1.342;2022-12-18T11:01:24;41;38;
61592;PMS5003;47485;51.378;-1.342;2022-12-18T11:03:58;35;32;
61592;PMS5003;47485;51.378;-1.342;2022-12-18T11:06:27;39;33;
61592;PMS5003;47485;51.378;-1.342;2022-12-18T11:08:58;43;38;
61592;PMS5003;47485;51.378;-1.342;2022-12-18T11:11:27;46;39;
61592;PMS5003;47485;51.378;-1.342;2022-12-18T11:13:58;39;36;
61592;PMS5003;47485;51.378;-1.342;2022-12-18T11:16:28;40;35;
61592;PMS5003;47485;51.378;-1.342;2022-12-18T11:19:08;48;43;
61592;PMS5003;47485;51.378;-1.342;2022-12-18T11:21:46;51;43;
61592;PMS5003;47485;51.378;-1.342;2022-12-18T11:24:17;45;37;
61592;PMS5003;47485;51.378;-1.342;2022-12-18T11:26:49;50;42;
61592;PMS5003;47485;51.378;-1.342;2022-12-18T11:29:18;50;36;
61592;PMS5003;47485;51.378;-1.342;2022-12-18T11:31:51;49;42;
61592;PMS5003;47485;51.378;-1.342;2022-12-18T11:34:19;44;36;
61592;PMS5003;47485;51.378;-1.342;2022-12-18T11:36:54;44;37;
61592;PMS5003;47485;51.378;-1.342;2022-12-18T11:39:24;42;39;
61592;PMS5003;47485;51.378;-1.342;2022-12-18T11:42:00;44;42;
61592;PMS5003;47485;51.378;-1.342;2022-12-18T11:44:34;54;43;
61592;PMS5003;47485;51.378;-1.342;2022-12-18T11:47:08;48;41;
61592;PMS5003;47485;51.378;-1.342;2022-12-18T11:49:40;42;39;
61592;PMS5003;47485;51.378;-1.342;2022-12-18T11:52:09;53;47;
61592;PMS5003;47485;51.378;-1.342;2022-12-18T11:54:42;45;39;
61592;PMS5003;47485;51.378;-1.342;2022-12-18T11:57:10;52;47;
61592;PMS5003;47485;51.378;-1.342;2022-12-18T11:59:48;59;52;
61592;PMS5003;47485;51.378;-1.342;2022-12-18T12:02:27;53;44;
61592;PMS5003;47485;51.378;-1.342;2022-12-18T12:05:09;46;43;
61592;PMS5003;47485;51.378;-1.342;2022-12-18T12:07:52;49;43;
61592;PMS5003;47485;51.378;-1.342;2022-12-18T12:10:27;59;50;
61592;PMS5003;47485;51.378;-1.342;2022-12-18T12:13:10;46;40;
61592;PMS5003;47485;51.378;-1.342;2022-12-18T12:15:50;42;38;
61592;PMS5003;47485;51.378;-1.342;2022-12-18T12:18:28;48;46;
61592;PMS5003;47485;51.378;-1.342;2022-12-18T12:21:08;42;39;
61592;PMS5003;47485;51.378;-1.342;2022-12-18T12:23:43;45;37;
61592;PMS5003;47485;51.378;-1.342;2022-12-18T12:26:21;43;36;
61592;PMS5003;47485;51.378;-1.342;2022-12-18T12:28:59;49;42;
61592;PMS5003;47485;51.378;-1.342;2022-12-18T12:31:41;41;37;
61592;PMS5003;47485;51.378;-1.342;2022-12-18T12:34:22;49;43;
61592;PMS5003;47485;51.378;-1.342;2022-12-18T12:36:56;38;33;
61592;PMS5003;47485;51.378;-1.342;2022-12-18T12:39:34;42;35;
61592;PMS5003;47485;51.378;-1.342;2022-12-18T12:42:03;40;38;
61592;PMS5003;47485;51.378;-1.342;2022-12-18T12:44:33;41;36;
61592;PMS5003;47485;51.378;-1.342;2022-12-18T12:47:07;43;36;
61592;PMS5003;47485;51.378;-1.342;2022-12-18T12:49:40;39;33;
61592;PMS5003;47485;51.378;-1.342;2022-12-18T12:52:10;44;36;
61592;PMS5003;47485;51.378;-1.342;2022-12-18T12:54:41;37;30;
61592;PMS5003;47485;51.378;-1.342;2022-12-18T12:57:10;39;33;
61592;PMS5003;47485;51.378;-1.342;2022-12-18T12:59:45;40;28;
61592;PMS5003;47485;51.378;-1.342;2022-12-18T13:02:18;39;33;
61592;PMS5003;47485;51.378;-1.342;2022-12-18T13:04:53;29;27;
61592;PMS5003;47485;51.378;-1.342;2022-12-18T13:07:30;32;28;
61592;PMS5003;47485;51.378;-1.342;2022-12-18T13:10:11;34;34;
61592;PMS5003;47485;51.378;-1.342;2022-12-18T13:12:50;27;25;
61592;PMS5003;47485;51.378;-1.342;2022-12-18T13:15:20;28;24;
61592;PMS5003;47485;51.378;-1.342;2022-12-18T13:17:50;28;27;
61592;PMS5003;47485;51.378;-1.342;2022-12-18T13:20:32;26;24;
61592;PMS5003;47485;51.378;-1.342;2022-12-18T13:23:01;19;19;
61592;PMS5003;47485;51.378;-1.342;2022-12-18T13:25:52;24;21;
61592;PMS5003;47485;51.378;-1.342;2022-12-18T13:28:21;26;23;
61592;PMS5003;47485;51.378;-1.342;2022-12-18T13:31:53;24;22;
61592;PMS5003;47485;51.378;-1.342;2022-12-18T13:34:26;27;22;
61592;PMS5003;47485;51.378;-1.342;2022-12-18T13:36:55;18;18;
61592;PMS5003;47485;51.378;-1.342;2022-12-18T13:39:24;20;19;
61592;PMS5003;47485;51.378;-1.342;2022-12-18T13:43:13;21;19;
61592;PMS5003;47485;51.378;-1.342;2022-12-18T13:45:50;15;15;
61592;PMS5003;47485;51.378;-1.342;2022-12-18T13:48:27;15;13;
61592;PMS5003;47485;51.378;-1.342;2022-12-18T13:50:59;15;14;
61592;PMS5003;47485;51.378;-1.342;2022-12-18T13:53:29;12;11;
61592;PMS5003;47485;51.378;-1.342;2022-12-18T13:55:59;16;11;
61592;PMS5003;47485;51.378;-1.342;2022-12-18T13:58:25;17;15;
61592;PMS5003;47485;51.378;-1.342;2022-12-18T14:00:52;11;9;
61592;PMS5003;47485;51.378;-1.342;2022-12-18T14:03:21;9;9;
61592;PMS5003;47485;51.378;-1.342;2022-12-18T14:05:53;9;7;
61592;PMS5003;47485;51.378;-1.342;2022-12-18T14:08:23;8;6;
61592;PMS5003;47485;51.378;-1.342;2022-12-18T14:10:50;8;7;
61592;PMS5003;47485;51.378;-1.342;2022-12-18T14:13:19;9;6;
61592;PMS5003;47485;51.378;-1.342;2022-12-18T14:15:49;6;6;
61592;PMS5003;47485;51.378;-1.342;2022-12-18T14:18:19;8;7;
61592;PMS5003;47485;51.378;-1.342;2022-12-18T14:20:49;6;6;
61592;PMS5003;47485;51.378;-1.342;2022-12-18T14:23:34;5;5;
61592;PMS5003;47485;51.378;-1.342;2022-12-18T14:26:03;9;7;
61592;PMS5003;47485;51.378;-1.342;2022-12-18T14:28:49;5;4;
61592;PMS5003;47485;51.378;-1.342;2022-12-18T14:31:17;4;4;
61592;PMS5003;47485;51.378;-1.342;2022-12-18T14:33:45;8;7;
61592;PMS5003;47485;51.378;-1.342;2022-12-18T14:36:14;5;4;
61592;PMS5003;47485;51.378;-1.342;2022-12-18T14:38:43;6;5;
61592;PMS5003;47485;51.378;-1.342;2022-12-18T14:41:16;4;4;
61592;PMS5003;47485;51.378;-1.342;2022-12-18T14:43:45;4;4;
61592;PMS5003;47485;51.378;-1.342;2022-12-18T14:46:30;6;5;
61592;PMS5003;47485;51.378;-1.342;2022-12-18T14:49:01;6;4;
61592;PMS5003;47485;51.378;-1.342;2022-12-18T14:51:30;5;5;
61592;PMS5003;47485;51.378;-1.342;2022-12-18T14:53:59;4;4;
61592;PMS5003;47485;51.378;-1.342;2022-12-18T14:56:29;4;4;
61592;PMS5003;47485;51.378;-1.342;2022-12-18T14:58:57;5;4;
61592;PMS5003;47485;51.378;-1.342;2022-12-18T15:01:27;5;4;
61592;PMS5003;47485;51.378;-1.342;2022-12-18T15:03:56;4;4;
61592;PMS5003;47485;51.378;-1.342;2022-12-18T15:06:26;2;2;
61592;PMS5003;47485;51.378;-1.342;2022-12-18T15:08:56;5;5;
61592;PMS5003;47485;51.378;-1.342;2022-12-18T15:11:25;3;3;
61592;PMS5003;47485;51.378;-1.342;2022-12-18T15:13:53;3;3;
61592;PMS5003;47485;51.378;-1.342;2022-12-18T15:16:21;3;3;
61592;PMS5003;47485;51.378;-1.342;2022-12-18T15:18:48;2;2;
61592;PMS5003;47485;51.378;-1.342;2022-12-18T15:21:16;4;3;
61592;PMS5003;47485;51.378;-1.342;2022-12-18T15:23:46;2;2;
61592;PMS5003;47485;51.378;-1.342;2022-12-18T15:26:15;3;3;
61592;PMS5003;47485;51.378;-1.342;2022-12-18T15:28:45;4;3;
61592;PMS5003;47485;51.378;-1.342;2022-12-18T15:31:21;2;2;
61592;PMS5003;47485;51.378;-1.342;2022-12-18T15:34:23;2;2;
61592;PMS5003;47485;51.378;-1.342;2022-12-18T15:36:50;2;2;
61592;PMS5003;47485;51.378;-1.342;2022-12-18T15:39:17;2;2;
61592;PMS5003;47485;51.378;-1.342;2022-12-18T15:41:43;1;1;
61592;PMS5003;47485;51.378;-1.342;2022-12-18T15:44:21;2;2;
61592;PMS5003;47485;51.378;-1.342;2022-12-18T15:46:49;3;3;
61592;PMS5003;47485;51.378;-1.342;2022-12-18T15:49:16;3;3;
61592;PMS5003;47485;51.378;-1.342;2022-12-18T15:51:43;2;2;
61592;PMS5003;47485;51.378;-1.342;2022-12-18T15:54:12;3;3;
61592;PMS5003;47485;51.378;-1.342;2022-12-18T15:56:40;3;3;
61592;PMS5003;47485;51.378;-1.342;2022-12-18T15:59:08;4;3;
61592;PMS5003;47485;51.378;-1.342;2022-12-18T16:01:37;3;3;
61592;PMS5003;47485;51.378;-1.342;2022-12-18T16:04:04;2;2;
61592;PMS5003;47485;51.378;-1.342;2022-12-18T16:06:31;4;4;
61592;PMS5003;47485;51.378;-1.342;2022-12-18T16:08:58;4;4;
61592;PMS5003;47485;51.378;-1.342;2022-12-18T16:11:26;3;3;
61592;PMS5003;47485;51.378;-1.342;2022-12-18T16:13:54;6;2;
61592;PMS5003;47485;51.378;-1.342;2022-12-18T16:16:21;3;3;
61592;PMS5003;47485;51.378;-1.342;2022-12-18T16:18:49;2;2;
61592;PMS5003;47485;51.378;-1.342;2022-12-18T16:21:16;3;3;
61592;PMS5003;47485;51.378;-1.342;2022-12-18T16:23:42;2;2;
61592;PMS5003;47485;51.378;-1.342;2022-12-18T16:26:09;3;2;